Aeroporto :
LOGIN :

Iscrizione | Disclaimer

   EN    FR    IT 

 










Sommario :    VFR   VFR Marginale   IFR   IFR Intensivo   IFR Molto Intensivo
Visibilità : 
Base nubi : 
>= 8 km
>= 3000ft
5 / 8 km
1000 / 3000 ft
1500m / 5 km
500 / 1000 ft
800 / 1500m
200 / 500 ft
< 800m
< 200 ft
Simboli :   Temporali  Nebbia  Neve Forte  Precipitazioni Forti  Vento > 20 kt
SIGMETs :   Varie  Temporali  Ghiacco  Turbolenza  Onda orograficha  Ceneri Vulcaniche







- Altitudine del aeroporto : 34 ft
- Codice IATA : BLK
- Carte del aeroporto


EGNH - Blackpool

ULTIMO METAR :
  • 200920Z 29017KT 9999 SCT015 FEW020TCU 14/09 Q1010

METARs OBSOLETI :
  • 200850Z 29017KT 9999 SCT017 14/09 Q1010
  • 200820Z 29017KT 9999 SCT017 14/09 Q1010
  • 200750Z 29017KT 9999 SCT018 13/09 Q1009
  • 200720Z 29017KT 9999 FEW015 BKN022 13/09 Q1009
  • 200650Z 29018KT 9999 VCSH SCT015 13/09 Q1009

TAF TAF EGNH
Valido dal 20 a 09 ore il 20 a 18 ore UTC


200803Z 2009/2018 27013KT 9999 SCT035
PROB30
TEMPO 2009/2018 6000 SHRA
ATIS : +44 1253 343 434 (x8315)
Nessun NOTAM noto per questo aeroporto.



MetMap, La meteo Aeronautica in un colpo d'occhio ! - Copyright ORBIFLY Dicembre 2007 - Disclaimer

ORBIFLY MET'MAP TEAM :

Programmazione e sviluppo : Alexandra Zaïnal
Concezione e sviluppo : Baudouin d'Aumeries
Co-Programmazione e sviluppo : Marc-Olivier Méhu
Supporto tecnico e logistico : Manuel Goepfert
Aiuto per la traduzione : Arnaldo La Scala

Contatto : metmap@orbifly.com




FONTI E CREDITI :

   NOAA